Close sub menu
S&P
S&P 500 Index 7337,110 -28,01 -0,38% (22:53)
Stijgers 1 dag
Dalers 1 dag
Indices 1 dag
Datadog +31,3%
Fortinet +20,0%
Axon Enterprise +10,6%
Viatris +9,0%
CrowdStrike Holdings +8,0%
PTC +8,0%
Bio-Techne Corp +7,4%
Palo Alto Networks Inc +7,0%
Workday +6,7%
Applovin Corp +6,4%
Howmet Aerospace +6,3%
Insulet Corp +6,0%
ZOETIS -21,5%
Tapestry -12,3%
Coterra Energy -8,6%
Teradyne -7,4%
Coherent Corp -7,4%
Ciena Corp -6,6%
GE Vernova -6,6%
Jabil -6,1%
NRG Energy -5,8%
International Flavors & Fragrances -5,6%
Lumentum Holdings -5,5%
APA Corp -5,4%
AEX* 1.015,37-0,4%
Midkap* 1.052,31-0,2%
AMS Next 20®* 1.668,49+0,2%
FTSE100 10.209,32-0,7%
Dow Jones 49.596,97-0,6%
NASDAQ 25.806,196-0,1%
S&P500 7.337,11-0,4%
S&P Future 7.395,00+0,4%
BEL20** 5.469,75-1,5%
CAC 40** 8.202,08-1,2%
DAX 24.421,95-1,0%
* real time    ** slotkoers
AandelenKoersVorige+/-+/- %HoogLaagVolumeTijd
3M Company 143,75 146,54 -2,79 -1,9% -- -- 32 22:00
Abbott Laboratories 87,01 86,30 +0,71 +0,8% -- -- 1.289 22:00
ABBVIE 202,71 205,03 -2,32 -1,1% -- -- 602 22:00
Accenture PLC 180,19 174,57 +5,62 +3,2% -- -- 1.600 22:00
Adobe 256,51 250,17 +6,34 +2,5% -- -- 11.239 22:00
Advanced Micro Devices 408,25 421,39 -12,93 -3,1% -- -- 214.610 22:00
AES Corp 14,29 14,34 -0,05 -0,3% -- -- 2.195 22:00
Aflac 113,60 113,40 +0,20 +0,2% 113,75 112,00 1.888.151 22:00
Agilent Technologies 118,65 117,69 +0,96 +0,8% 119,58 117,50 2.281.358 22:00
Air Products & Chemicals 294,99 300,21 -5,22 -1,7% -- -- 53 22:00
Airbnb 140,46 139,88 +0,58 +0,4% -- -- 857 22:00
Akamai Technologies 116,61 121,99 -5,30 -4,3% -- -- 14.628 22:00
Albemarle Corp 198,35 192,61 +5,74 +3,0% -- -- 6.631 22:00
Alexandria Real Estate Equities 45,58 45,83 -0,25 -0,5% -- -- 566 22:00
Align Technology 168,32 173,94 -5,55 -3,2% -- -- 753.269 22:00
Allegion Public Limited 136,81 135,33 +1,48 +1,1% 137,46 134,93 1.485.418 22:00
Alliant Energy Corp 71,72 72,31 -0,62 -0,9% 72,26 71,48 2.914.694 22:00
Allstate Corp (The) 213,67 217,92 -4,25 -2,0% 214,53 209,66 2.837.520 22:00
Alphabet 395,30 395,14 +0,16 0,0% -- -- 50.798 22:00
Alphabet 397,94 398,04 -0,05 0,0% -- -- 87.873 22:00
Altria Group 69,04 70,17 -1,13 -1,6% -- -- 2.786 22:00
Amazon.com 271,17 274,99 -3,82 -1,4% -- -- 70.806 22:00
Amcor Plc 39,92 40,21 -0,29 -0,7% -- -- 315 22:00
Ameren Corp 108,77 109,59 -0,82 -0,7% 109,30 107,70 1.494.861 22:00
American Electric Power Company 131,75 132,56 -0,80 -0,6% -- -- 609 22:00
American Express Company 318,69 321,90 -3,21 -1,0% -- -- 684 22:02
American International Group 76,43 77,69 -1,26 -1,6% -- -- 2.802.837 22:00
American Tower Corp 179,77 180,16 -0,39 -0,2% -- -- 9 22:00
American Water Works Company 126,20 125,68 +0,52 +0,4% -- -- 3 22:00
Ameriprise Financial 458,84 475,29 -16,45 -3,5% -- -- 180 22:00
Ametek 234,73 241,38 -6,65 -2,8% 240,39 233,86 1.136.605 22:00
Amgen 329,06 331,11 -2,02 -0,6% -- -- 59 22:00
Amphenol Corp 136,62 138,47 -1,85 -1,3% -- -- 3.952 22:00
Analog Devices 408,65 415,63 -7,11 -1,7% -- -- 1.638 22:00
AO Smith Corp 60,23 61,06 -0,83 -1,4% 61,41 59,76 1.973.022 22:00
Aon plc 313,59 308,27 +5,32 +1,7% -- -- 3.003 22:00
APA Corp 36,24 38,30 -2,06 -5,4% -- -- 4.587 22:00
Apollo Global Management 127,79 129,53 -1,74 -1,3% -- -- 4.060.947 22:00
Apple 287,42 287,51 -0,07 0,0% -- -- 65.086 22:00
Applied Materials 410,52 428,62 -17,98 -4,2% -- -- 13.130 22:00
Applovin Corp 498,87 468,83 +30,04 +6,4% -- -- 12.426 22:00
Aptiv PLC 57,11 56,80 +0,31 +0,5% -- -- 1.376 22:00
Arch Capital Group Ltd 94,52 94,70 -0,18 -0,2% 95,17 93,42 2.236.317 22:00
Archer Daniels Midland Company 77,53 78,02 -0,49 -0,6% -- -- 377 22:00
Ares Management Corp 123,15 123,86 -0,71 -0,6% -- -- 75 22:00
Arista Networks Inc 141,75 147,06 -5,31 -3,6% -- -- 43.823 22:00
Arthur J Gallagher & Co 201,94 196,91 +5,03 +2,6% -- -- 3.218.194 22:00
Assurant 233,80 236,61 -2,81 -1,2% 238,38 232,30 439.256 22:00
AT&T 25,26 25,57 -0,31 -1,2% -- -- 4.246 22:00
Atmos Energy Corp 181,86 184,76 -2,90 -1,6% -- -- 3 22:00
Autodesk 251,10 243,08 +7,96 +3,3% -- -- 1.009 22:00
Automatic Data Processing 214,09 207,20 +6,89 +3,3% -- -- 194 22:00
AutoZone 3.554,88 3.541,79 +13,09 +0,4% -- -- 230.379 22:00
AvalonBay Communities 185,79 186,44 -0,65 -0,3% -- -- 33 22:00
Avery Dennison Corp 165,53 166,68 -1,15 -0,7% 169,07 164,48 894.994 22:00
Axon Enterprise 426,89 385,86 +41,03 +10,6% -- -- 2.396 22:00
Baker Hughes Company 63,53 66,67 -3,14 -4,7% -- -- 2.094 22:00
Ball Corp 58,41 59,00 -0,59 -1,0% -- -- 3.658.230 22:00
Bank of America Corp 52,75 53,60 -0,85 -1,6% -- -- 2.589 22:00
Bank of New York Mellon Corp 130,69 133,64 -2,95 -2,2% -- -- 72 22:00
Baxter International 17,49 16,98 +0,51 +3,0% -- -- 4 22:00
Becton Dickinson and Co 153,26 144,76 +8,50 +5,9% -- -- 109 22:00
Berkshire Hathaway 475,08 469,83 +5,25 +1,1% -- -- 5.046 22:00
Best Buy Company 58,54 58,69 -0,15 -0,3% -- -- 17 22:00
Biogen 191,50 190,68 +0,70 +0,4% -- -- 1.100 22:00
Bio-Techne Corp 50,91 47,41 +3,51 +7,4% -- -- 39 22:00
Blackrock 1.067,74 1.073,57 -5,83 -0,5% -- -- 35 22:00
Blackstone 122,33 124,69 -2,36 -1,9% -- -- 375 22:03
Block Inc 70,14 70,83 -0,69 -1,0% -- -- 22.052 22:04
Boeing Company 231,03 229,93 +1,10 +0,5% -- -- 5.322 22:00
Booking Holdings Inc. 171,28 168,32 +2,96 +1,8% -- -- 671 22:00
Boston Scientific Corp 56,58 56,00 +0,57 +1,0% -- -- 1.280 22:00
Bristol-Myers Squibb Co 56,25 56,59 -0,34 -0,6% -- -- 244 22:00
Broadcom Inc. 412,56 425,44 -12,88 -3,0% -- -- 46.963 22:00
Broadridge Financial Solutions 152,89 152,83 +0,06 0,0% -- -- 1.760.622 22:00
Brown & Brown 58,05 56,56 +1,49 +2,6% -- -- 3.431.096 22:00
Brown-Forman Corp 27,38 26,98 +0,40 +1,5% -- -- 3.501 22:00
Builders FirstSource 79,41 80,03 -0,62 -0,8% -- -- 3.736.963 22:00
Bunge Global SA 123,75 126,05 -2,30 -1,8% -- -- 47 22:00
BXP Inc. 59,46 59,84 -0,38 -0,6% -- -- 8 22:00
C.H. Robinson Worldwide 171,41 168,59 +2,78 +1,6% -- -- 4 22:00
Cadence Design Systems 356,90 354,90 +2,00 +0,6% -- -- 2.224 22:00
Camden Property Trust 104,07 104,81 -0,74 -0,7% 105,07 103,91 2.001.120 22:00
Capital One Financial 192,59 193,40 -0,81 -0,4% -- -- 84 22:00
Cardinal Health 185,28 191,49 -6,21 -3,2% -- -- 168 22:00
Carnival Corporation Ltd. 27,00 27,52 -0,52 -1,9% -- -- 24.092 22:00
Carrier Global Corp 67,22 67,90 -0,68 -1,0% -- -- 1.317 22:00
Carvana Co. 400,02 389,38 +10,64 +2,7% -- -- 2.464 22:01
Casey's General Stores 850,95 858,14 -7,19 -0,8% 859,69 832,35 422.876 22:00
Caterpillar 895,69 926,93 -31,24 -3,4% -- -- 2.461 22:00
Cboe Global Markets 338,66 346,00 -7,35 -2,1% -- -- 9 22:00
Cbre Group 146,70 145,16 +1,54 +1,1% 148,58 144,46 1.828.102 22:00
CDW Corp 110,26 109,00 +1,20 +1,1% -- -- 141 22:00
Cencora 255,66 252,74 +2,92 +1,2% -- -- 3.701.234 22:00
Centene Corp 54,98 55,33 -0,35 -0,6% -- -- 111 22:00
CenterPoint Energy 42,24 42,33 -0,09 -0,2% 42,40 41,92 4.982.436 22:00
CF Industries Holding 118,68 119,76 -1,08 -0,9% -- -- 3.805 22:00
Charles River Laboratories International 181,68 181,73 -0,05 0,0% -- -- 129 22:00
Charles Schwab Corp (The) 89,50 92,15 -2,65 -2,9% -- -- 2.322 22:00
Charter Communications 160,24 156,52 +3,72 +2,4% -- -- 122 22:00
vorige 1 2 3 4 5 6 volgende 
Powered by

Schakel browser notificaties in

Schakel browser notificaties in om meldingen te ontvangen op dit apparaat.

Browser notificaties inschakelen

U heeft browser notificaties voor fd.nl eerder geweigerd. Ga naar browser instellingen en sta browser notificaties toe voor fd.nl. De precieze handelingen zijn afhankelijk van uw browser.

U volgt een onderwerp

Wanneer deze zoekterm in een artikel voorkomt, zult u deze terugvinden in Mijn nieuws onder ‘Eurobonds’.

Wilt u via de FD App meldingen ontvangen voor dit onderwerp?

Wilt u via de FD App meldingen ontvangen voor dit onderwerp?

Ons privacy statement is van toepassing.

Meldingen

Wanneer deze zoekterm in een artikel voorkomt, zult u deze terugvinden in Mijn nieuws onder ‘Eurobonds’.

Wilt u via de FD App meldingen ontvangen voor dit onderwerp?

Wilt u via de FD App meldingen ontvangen voor dit onderwerp?